sensor_id;sensor_type;location;lat;lon;timestamp;pressure;altitude;pressure_sealevel;temperature;humidity
6464;BME280;3265;42.694;23.282;2022-08-21T00:00:56;94179.16;;;20.31;100.00
6464;BME280;3265;42.694;23.282;2022-08-21T00:03:23;94168.31;;;20.32;100.00
6464;BME280;3265;42.694;23.282;2022-08-21T00:05:51;94166.75;;;20.31;100.00
6464;BME280;3265;42.694;23.282;2022-08-21T00:08:20;94180.91;;;20.35;100.00
6464;BME280;3265;42.694;23.282;2022-08-21T00:10:47;94174.16;;;20.29;100.00
6464;BME280;3265;42.694;23.282;2022-08-21T00:13:15;94184.34;;;20.36;100.00
6464;BME280;3265;42.694;23.282;2022-08-21T00:15:42;94173.91;;;20.45;100.00
6464;BME280;3265;42.694;23.282;2022-08-21T00:18:09;94175.28;;;20.42;100.00
6464;BME280;3265;42.694;23.282;2022-08-21T00:20:38;94175.53;;;20.41;100.00
6464;BME280;3265;42.694;23.282;2022-08-21T00:23:05;94167.22;;;20.33;100.00
6464;BME280;3265;42.694;23.282;2022-08-21T00:25:34;94158.94;;;20.40;100.00
6464;BME280;3265;42.694;23.282;2022-08-21T00:28:02;94151.72;;;20.46;100.00
6464;BME280;3265;42.694;23.282;2022-08-21T00:30:31;94151.78;;;20.41;100.00
6464;BME280;3265;42.694;23.282;2022-08-21T00:32:58;94153.38;;;20.42;100.00
6464;BME280;3265;42.694;23.282;2022-08-21T00:35:29;94151.69;;;20.32;100.00
6464;BME280;3265;42.694;23.282;2022-08-21T00:37:56;94165.28;;;20.25;100.00
6464;BME280;3265;42.694;23.282;2022-08-21T00:40:31;94155.72;;;20.11;100.00
6464;BME280;3265;42.694;23.282;2022-08-21T00:43:01;94154.34;;;19.81;100.00
6464;BME280;3265;42.694;23.282;2022-08-21T00:45:28;94148.88;;;19.59;100.00
6464;BME280;3265;42.694;23.282;2022-08-21T00:47:56;94142.09;;;19.53;100.00
6464;BME280;3265;42.694;23.282;2022-08-21T00:50:26;94157.56;;;19.59;100.00
6464;BME280;3265;42.694;23.282;2022-08-21T00:52:55;94153.50;;;19.67;100.00
6464;BME280;3265;42.694;23.282;2022-08-21T00:55:22;94153.56;;;19.62;100.00
6464;BME280;3265;42.694;23.282;2022-08-21T00:57:53;94155.63;;;19.65;100.00
6464;BME280;3265;42.694;23.282;2022-08-21T01:00:25;94146.19;;;19.77;100.00
6464;BME280;3265;42.694;23.282;2022-08-21T01:02:55;94145.50;;;19.91;100.00
6464;BME280;3265;42.694;23.282;2022-08-21T01:05:22;94152.88;;;20.07;100.00
6464;BME280;3265;42.694;23.282;2022-08-21T01:07:49;94148.78;;;20.15;100.00
6464;BME280;3265;42.694;23.282;2022-08-21T01:10:16;94151.97;;;20.12;100.00
6464;BME280;3265;42.694;23.282;2022-08-21T01:12:43;94148.84;;;20.10;100.00
6464;BME280;3265;42.694;23.282;2022-08-21T01:15:12;94138.50;;;20.00;100.00
6464;BME280;3265;42.694;23.282;2022-08-21T01:17:43;94134.84;;;19.96;100.00
6464;BME280;3265;42.694;23.282;2022-08-21T01:20:11;94127.50;;;19.93;100.00
6464;BME280;3265;42.694;23.282;2022-08-21T01:22:39;94106.28;;;19.84;100.00
6464;BME280;3265;42.694;23.282;2022-08-21T01:25:09;94118.69;;;19.83;100.00
6464;BME280;3265;42.694;23.282;2022-08-21T01:27:37;94131.16;;;19.97;100.00
6464;BME280;3265;42.694;23.282;2022-08-21T01:30:10;94129.00;;;19.99;100.00
6464;BME280;3265;42.694;23.282;2022-08-21T01:32:38;94114.50;;;19.83;100.00
6464;BME280;3265;42.694;23.282;2022-08-21T01:35:06;94116.50;;;19.72;100.00
6464;BME280;3265;42.694;23.282;2022-08-21T01:37:33;94121.94;;;19.62;100.00
6464;BME280;3265;42.694;23.282;2022-08-21T01:40:03;94116.66;;;19.62;100.00
6464;BME280;3265;42.694;23.282;2022-08-21T01:42:30;94117.94;;;19.64;100.00
6464;BME280;3265;42.694;23.282;2022-08-21T01:44:57;94128.97;;;19.66;100.00
6464;BME280;3265;42.694;23.282;2022-08-21T01:47:24;94132.19;;;19.63;100.00
6464;BME280;3265;42.694;23.282;2022-08-21T01:49:51;94132.66;;;19.65;100.00
6464;BME280;3265;42.694;23.282;2022-08-21T01:52:18;94139.59;;;19.61;100.00
6464;BME280;3265;42.694;23.282;2022-08-21T01:54:46;94131.78;;;19.56;100.00
6464;BME280;3265;42.694;23.282;2022-08-21T01:57:14;94125.84;;;19.64;100.00
6464;BME280;3265;42.694;23.282;2022-08-21T01:59:42;94126.19;;;19.58;100.00
6464;BME280;3265;42.694;23.282;2022-08-21T02:02:09;94134.41;;;19.56;100.00
6464;BME280;3265;42.694;23.282;2022-08-21T02:04:35;94140.25;;;19.53;100.00
6464;BME280;3265;42.694;23.282;2022-08-21T02:07:03;94139.94;;;19.55;100.00
6464;BME280;3265;42.694;23.282;2022-08-21T02:09:30;94141.53;;;19.56;100.00
6464;BME280;3265;42.694;23.282;2022-08-21T02:11:56;94147.06;;;19.54;100.00
6464;BME280;3265;42.694;23.282;2022-08-21T02:14:25;94151.84;;;19.52;100.00
6464;BME280;3265;42.694;23.282;2022-08-21T02:16:52;94149.84;;;19.63;100.00
6464;BME280;3265;42.694;23.282;2022-08-21T02:19:19;94144.31;;;19.64;100.00
6464;BME280;3265;42.694;23.282;2022-08-21T02:21:45;94136.66;;;19.63;100.00
6464;BME280;3265;42.694;23.282;2022-08-21T02:24:12;94145.44;;;19.58;100.00
6464;BME280;3265;42.694;23.282;2022-08-21T02:26:39;94140.19;;;19.58;100.00
6464;BME280;3265;42.694;23.282;2022-08-21T02:29:06;94142.66;;;19.50;100.00
6464;BME280;3265;42.694;23.282;2022-08-21T02:31:35;94145.53;;;19.53;100.00
6464;BME280;3265;42.694;23.282;2022-08-21T02:34:02;94146.22;;;19.40;100.00
6464;BME280;3265;42.694;23.282;2022-08-21T02:36:28;94152.28;;;19.41;100.00
6464;BME280;3265;42.694;23.282;2022-08-21T02:38:55;94153.97;;;19.32;100.00
6464;BME280;3265;42.694;23.282;2022-08-21T02:41:23;94151.63;;;19.30;100.00
6464;BME280;3265;42.694;23.282;2022-08-21T02:43:50;94148.97;;;19.30;100.00
6464;BME280;3265;42.694;23.282;2022-08-21T02:46:19;94150.53;;;19.31;100.00
6464;BME280;3265;42.694;23.282;2022-08-21T02:48:48;94154.44;;;19.39;100.00
6464;BME280;3265;42.694;23.282;2022-08-21T02:51:17;94150.47;;;19.36;100.00
6464;BME280;3265;42.694;23.282;2022-08-21T02:53:45;94152.78;;;19.43;100.00
6464;BME280;3265;42.694;23.282;2022-08-21T02:56:15;94146.81;;;19.56;100.00
6464;BME280;3265;42.694;23.282;2022-08-21T02:58:44;94141.81;;;19.54;100.00
6464;BME280;3265;42.694;23.282;2022-08-21T03:01:12;94143.50;;;19.45;100.00
6464;BME280;3265;42.694;23.282;2022-08-21T03:03:43;94153.28;;;19.45;100.00
6464;BME280;3265;42.694;23.282;2022-08-21T03:06:13;94154.44;;;19.39;100.00
6464;BME280;3265;42.694;23.282;2022-08-21T03:08:41;94159.53;;;19.49;100.00
6464;BME280;3265;42.694;23.282;2022-08-21T03:11:10;94154.63;;;19.61;100.00
6464;BME280;3265;42.694;23.282;2022-08-21T03:13:37;94148.22;;;19.67;100.00
6464;BME280;3265;42.694;23.282;2022-08-21T03:16:05;94151.91;;;19.66;100.00
6464;BME280;3265;42.694;23.282;2022-08-21T03:18:33;94142.72;;;19.63;100.00
6464;BME280;3265;42.694;23.282;2022-08-21T03:21:00;94146.44;;;19.62;100.00
6464;BME280;3265;42.694;23.282;2022-08-21T03:23:29;94150.38;;;19.65;100.00
6464;BME280;3265;42.694;23.282;2022-08-21T03:25:56;94156.63;;;19.69;100.00
6464;BME280;3265;42.694;23.282;2022-08-21T03:28:24;94158.75;;;19.67;100.00
6464;BME280;3265;42.694;23.282;2022-08-21T03:30:52;94155.63;;;19.65;100.00
6464;BME280;3265;42.694;23.282;2022-08-21T03:33:19;94144.00;;;19.66;100.00
6464;BME280;3265;42.694;23.282;2022-08-21T03:35:51;94146.50;;;19.76;100.00
6464;BME280;3265;42.694;23.282;2022-08-21T03:38:20;94135.66;;;19.77;100.00
6464;BME280;3265;42.694;23.282;2022-08-21T03:40:48;94143.06;;;19.75;100.00
6464;BME280;3265;42.694;23.282;2022-08-21T03:43:15;94138.88;;;19.74;100.00
6464;BME280;3265;42.694;23.282;2022-08-21T03:45:42;94138.59;;;19.76;100.00
6464;BME280;3265;42.694;23.282;2022-08-21T03:48:09;94151.56;;;19.72;100.00
6464;BME280;3265;42.694;23.282;2022-08-21T03:50:37;94141.88;;;19.68;100.00
6464;BME280;3265;42.694;23.282;2022-08-21T03:53:05;94155.13;;;19.63;100.00
6464;BME280;3265;42.694;23.282;2022-08-21T03:55:31;94152.56;;;19.58;100.00
6464;BME280;3265;42.694;23.282;2022-08-21T03:58:00;94150.50;;;19.55;100.00
6464;BME280;3265;42.694;23.282;2022-08-21T04:00:28;94161.53;;;19.57;100.00
6464;BME280;3265;42.694;23.282;2022-08-21T04:02:55;94163.41;;;19.56;100.00
6464;BME280;3265;42.694;23.282;2022-08-21T04:05:22;94163.41;;;19.56;100.00
6464;BME280;3265;42.694;23.282;2022-08-21T04:07:56;94161.13;;;19.50;100.00
6464;BME280;3265;42.694;23.282;2022-08-21T04:10:24;94171.09;;;19.53;100.00
6464;BME280;3265;42.694;23.282;2022-08-21T04:12:51;94169.88;;;19.45;100.00
6464;BME280;3265;42.694;23.282;2022-08-21T04:15:20;94176.38;;;19.53;100.00
6464;BME280;3265;42.694;23.282;2022-08-21T04:17:47;94170.00;;;19.54;100.00
6464;BME280;3265;42.694;23.282;2022-08-21T04:20:15;94164.81;;;19.49;100.00
6464;BME280;3265;42.694;23.282;2022-08-21T04:22:42;94159.28;;;19.50;100.00
6464;BME280;3265;42.694;23.282;2022-08-21T04:25:09;94157.91;;;19.53;100.00
6464;BME280;3265;42.694;23.282;2022-08-21T04:27:36;94159.31;;;19.45;100.00
6464;BME280;3265;42.694;23.282;2022-08-21T04:30:05;94157.84;;;19.39;100.00
6464;BME280;3265;42.694;23.282;2022-08-21T04:32:34;94156.03;;;19.35;100.00
6464;BME280;3265;42.694;23.282;2022-08-21T04:35:02;94157.72;;;19.25;100.00
6464;BME280;3265;42.694;23.282;2022-08-21T04:37:30;94168.25;;;19.49;100.00
6464;BME280;3265;42.694;23.282;2022-08-21T04:39:57;94170.22;;;19.57;100.00
6464;BME280;3265;42.694;23.282;2022-08-21T04:42:24;94169.09;;;19.63;100.00
6464;BME280;3265;42.694;23.282;2022-08-21T04:44:52;94162.53;;;19.61;100.00
6464;BME280;3265;42.694;23.282;2022-08-21T04:47:19;94158.19;;;19.51;100.00
6464;BME280;3265;42.694;23.282;2022-08-21T04:49:47;94161.41;;;19.48;100.00
6464;BME280;3265;42.694;23.282;2022-08-21T04:52:19;94158.25;;;19.46;100.00
6464;BME280;3265;42.694;23.282;2022-08-21T04:54:48;94160.25;;;19.54;100.00
6464;BME280;3265;42.694;23.282;2022-08-21T04:57:17;94159.63;;;19.62;100.00
6464;BME280;3265;42.694;23.282;2022-08-21T04:59:47;94148.00;;;19.63;100.00
6464;BME280;3265;42.694;23.282;2022-08-21T05:02:15;94147.22;;;19.63;100.00
6464;BME280;3265;42.694;23.282;2022-08-21T05:04:46;94151.25;;;19.74;100.00
6464;BME280;3265;42.694;23.282;2022-08-21T05:07:19;94160.41;;;19.81;100.00
6464;BME280;3265;42.694;23.282;2022-08-21T05:09:47;94166.47;;;19.82;100.00
6464;BME280;3265;42.694;23.282;2022-08-21T05:12:14;94164.63;;;19.83;100.00
6464;BME280;3265;42.694;23.282;2022-08-21T05:14:42;94172.72;;;19.86;100.00
6464;BME280;3265;42.694;23.282;2022-08-21T05:17:09;94169.72;;;19.93;100.00
6464;BME280;3265;42.694;23.282;2022-08-21T05:19:36;94167.72;;;19.85;100.00
6464;BME280;3265;42.694;23.282;2022-08-21T05:22:03;94165.22;;;19.93;100.00
6464;BME280;3265;42.694;23.282;2022-08-21T05:24:31;94167.22;;;20.01;100.00
6464;BME280;3265;42.694;23.282;2022-08-21T05:26:58;94161.34;;;20.04;100.00
6464;BME280;3265;42.694;23.282;2022-08-21T05:29:25;94164.28;;;20.03;100.00
6464;BME280;3265;42.694;23.282;2022-08-21T05:31:52;94161.22;;;19.96;100.00
6464;BME280;3265;42.694;23.282;2022-08-21T05:34:20;94156.22;;;19.94;100.00
6464;BME280;3265;42.694;23.282;2022-08-21T05:36:47;94144.78;;;19.85;100.00
6464;BME280;3265;42.694;23.282;2022-08-21T05:39:14;94162.81;;;19.97;100.00
6464;BME280;3265;42.694;23.282;2022-08-21T05:41:43;94142.56;;;19.92;100.00
6464;BME280;3265;42.694;23.282;2022-08-21T05:44:10;94151.88;;;20.03;100.00
6464;BME280;3265;42.694;23.282;2022-08-21T05:46:37;94155.41;;;20.12;100.00
6464;BME280;3265;42.694;23.282;2022-08-21T05:49:04;94158.06;;;20.12;100.00
6464;BME280;3265;42.694;23.282;2022-08-21T05:51:31;94157.00;;;20.13;100.00
6464;BME280;3265;42.694;23.282;2022-08-21T05:53:57;94157.00;;;20.13;100.00
6464;BME280;3265;42.694;23.282;2022-08-21T05:56:24;94156.50;;;20.11;100.00
6464;BME280;3265;42.694;23.282;2022-08-21T05:58:53;94156.19;;;20.13;100.00
6464;BME280;3265;42.694;23.282;2022-08-21T06:01:19;94159.41;;;20.28;100.00
6464;BME280;3265;42.694;23.282;2022-08-21T06:03:46;94165.09;;;20.35;100.00
6464;BME280;3265;42.694;23.282;2022-08-21T06:06:13;94160.00;;;20.25;100.00
6464;BME280;3265;42.694;23.282;2022-08-21T06:08:41;94165.28;;;20.25;100.00
6464;BME280;3265;42.694;23.282;2022-08-21T06:11:08;94160.22;;;20.24;100.00
6464;BME280;3265;42.694;23.282;2022-08-21T06:13:36;94161.53;;;20.26;100.00
6464;BME280;3265;42.694;23.282;2022-08-21T06:16:08;94157.84;;;20.27;100.00
6464;BME280;3265;42.694;23.282;2022-08-21T06:18:36;94162.31;;;20.27;100.00
6464;BME280;3265;42.694;23.282;2022-08-21T06:21:04;94156.47;;;20.30;100.00
6464;BME280;3265;42.694;23.282;2022-08-21T06:23:30;94148.06;;;20.28;100.00
6464;BME280;3265;42.694;23.282;2022-08-21T06:25:58;94158.25;;;20.34;100.00
6464;BME280;3265;42.694;23.282;2022-08-21T06:28:25;94155.31;;;20.36;100.00
6464;BME280;3265;42.694;23.282;2022-08-21T06:30:52;94156.50;;;20.44;100.00
6464;BME280;3265;42.694;23.282;2022-08-21T06:33:20;94150.44;;;20.43;100.00
6464;BME280;3265;42.694;23.282;2022-08-21T06:35:46;94158.88;;;20.59;100.00
6464;BME280;3265;42.694;23.282;2022-08-21T06:38:13;94160.75;;;20.85;100.00
6464;BME280;3265;42.694;23.282;2022-08-21T06:40:40;94156.81;;;20.97;100.00
6464;BME280;3265;42.694;23.282;2022-08-21T06:43:11;94166.69;;;21.05;100.00
6464;BME280;3265;42.694;23.282;2022-08-21T06:45:38;94165.91;;;21.04;100.00
6464;BME280;3265;42.694;23.282;2022-08-21T06:48:06;94169.66;;;21.17;100.00
6464;BME280;3265;42.694;23.282;2022-08-21T06:50:35;94160.34;;;21.19;100.00
6464;BME280;3265;42.694;23.282;2022-08-21T06:53:04;94156.13;;;21.18;100.00
6464;BME280;3265;42.694;23.282;2022-08-21T06:55:32;94164.56;;;21.20;100.00
6464;BME280;3265;42.694;23.282;2022-08-21T06:57:59;94169.66;;;21.17;100.00
6464;BME280;3265;42.694;23.282;2022-08-21T07:00:26;94172.69;;;21.10;100.00
6464;BME280;3265;42.694;23.282;2022-08-21T07:02:53;94175.41;;;21.05;100.00
6464;BME280;3265;42.694;23.282;2022-08-21T07:05:20;94177.19;;;21.10;100.00
6464;BME280;3265;42.694;23.282;2022-08-21T07:07:49;94173.78;;;21.09;100.00
6464;BME280;3265;42.694;23.282;2022-08-21T07:10:16;94176.81;;;21.16;100.00
6464;BME280;3265;42.694;23.282;2022-08-21T07:12:42;94165.06;;;21.22;100.00
6464;BME280;3265;42.694;23.282;2022-08-21T07:15:10;94179.63;;;21.47;100.00
6464;BME280;3265;42.694;23.282;2022-08-21T07:17:37;94174.28;;;21.61;100.00
6464;BME280;3265;42.694;23.282;2022-08-21T07:20:05;94177.69;;;21.75;100.00
6464;BME280;3265;42.694;23.282;2022-08-21T07:22:32;94174.13;;;21.79;100.00
6464;BME280;3265;42.694;23.282;2022-08-21T07:25:03;94173.66;;;21.77;100.00
6464;BME280;3265;42.694;23.282;2022-08-21T07:27:30;94173.53;;;21.82;100.00
6464;BME280;3265;42.694;23.282;2022-08-21T07:29:58;94176.78;;;21.79;100.00
6464;BME280;3265;42.694;23.282;2022-08-21T07:32:25;94166.78;;;21.90;100.00
6464;BME280;3265;42.694;23.282;2022-08-21T07:34:51;94167.56;;;21.77;100.00
6464;BME280;3265;42.694;23.282;2022-08-21T07:37:18;94158.56;;;21.78;100.00
6464;BME280;3265;42.694;23.282;2022-08-21T07:39:45;94150.63;;;21.78;100.00
6464;BME280;3265;42.694;23.282;2022-08-21T07:42:15;94151.19;;;21.53;100.00
6464;BME280;3265;42.694;23.282;2022-08-21T07:44:42;94152.38;;;21.46;100.00
6464;BME280;3265;42.694;23.282;2022-08-21T07:47:09;94147.53;;;21.26;100.00
6464;BME280;3265;42.694;23.282;2022-08-21T07:49:36;94146.28;;;21.24;100.00
6464;BME280;3265;42.694;23.282;2022-08-21T07:52:05;94147.78;;;21.52;100.00
6464;BME280;3265;42.694;23.282;2022-08-21T07:54:32;94148.19;;;21.68;100.00
6464;BME280;3265;42.694;23.282;2022-08-21T07:56:59;94140.44;;;21.71;100.00
6464;BME280;3265;42.694;23.282;2022-08-21T07:59:27;94143.03;;;21.85;100.00
6464;BME280;3265;42.694;23.282;2022-08-21T08:01:54;94144.94;;;21.84;100.00
6464;BME280;3265;42.694;23.282;2022-08-21T08:04:22;94142.09;;;21.81;100.00
6464;BME280;3265;42.694;23.282;2022-08-21T08:06:48;94156.28;;;21.85;100.00
6464;BME280;3265;42.694;23.282;2022-08-21T08:09:15;94152.34;;;21.96;100.00
6464;BME280;3265;42.694;23.282;2022-08-21T08:11:43;94148.06;;;22.09;100.00
6464;BME280;3265;42.694;23.282;2022-08-21T08:14:10;94144.34;;;22.10;100.00
6464;BME280;3265;42.694;23.282;2022-08-21T08:16:38;94138.91;;;22.15;100.00
6464;BME280;3265;42.694;23.282;2022-08-21T08:19:05;94145.09;;;22.32;100.00
6464;BME280;3265;42.694;23.282;2022-08-21T08:21:32;94139.72;;;22.46;100.00
6464;BME280;3265;42.694;23.282;2022-08-21T08:23:59;94138.84;;;22.59;100.00
6464;BME280;3265;42.694;23.282;2022-08-21T08:26:26;94143.31;;;22.81;100.00
6464;BME280;3265;42.694;23.282;2022-08-21T08:28:53;94144.00;;;22.95;100.00
6464;BME280;3265;42.694;23.282;2022-08-21T08:31:20;94144.75;;;22.87;100.00
6464;BME280;3265;42.694;23.282;2022-08-21T08:33:48;94147.16;;;22.97;100.00
6464;BME280;3265;42.694;23.282;2022-08-21T08:36:16;94153.41;;;23.18;100.00
6464;BME280;3265;42.694;23.282;2022-08-21T08:38:44;94152.22;;;23.33;99.64
6464;BME280;3265;42.694;23.282;2022-08-21T08:41:13;94149.56;;;23.33;98.09
6464;BME280;3265;42.694;23.282;2022-08-21T08:43:43;94154.28;;;23.44;97.85
6464;BME280;3265;42.694;23.282;2022-08-21T08:46:15;94156.94;;;23.44;98.59
6464;BME280;3265;42.694;23.282;2022-08-21T08:48:49;94157.25;;;23.43;97.06
6464;BME280;3265;42.694;23.282;2022-08-21T08:51:22;94150.56;;;23.45;98.89
6464;BME280;3265;42.694;23.282;2022-08-21T08:53:54;94140.88;;;23.66;98.15
6464;BME280;3265;42.694;23.282;2022-08-21T08:56:29;94143.22;;;23.85;96.21
6464;BME280;3265;42.694;23.282;2022-08-21T08:59:01;94143.69;;;24.13;96.25
6464;BME280;3265;42.694;23.282;2022-08-21T09:01:29;94141.94;;;24.34;94.08
6464;BME280;3265;42.694;23.282;2022-08-21T09:03:57;94126.97;;;24.30;92.52
6464;BME280;3265;42.694;23.282;2022-08-21T09:06:53;94135.34;;;24.49;91.49
6464;BME280;3265;42.694;23.282;2022-08-21T09:09:32;94129.00;;;24.79;90.46
6464;BME280;3265;42.694;23.282;2022-08-21T09:12:04;94121.88;;;25.00;89.28
6464;BME280;3265;42.694;23.282;2022-08-21T09:14:45;94128.13;;;25.04;85.43
6464;BME280;3265;42.694;23.282;2022-08-21T09:17:23;94120.94;;;25.05;86.75
6464;BME280;3265;42.694;23.282;2022-08-21T09:20:16;94125.97;;;24.98;88.02
6464;BME280;3265;42.694;23.282;2022-08-21T09:22:52;94117.16;;;25.06;86.93
6464;BME280;3265;42.694;23.282;2022-08-21T09:25:26;94118.81;;;25.19;86.09
6464;BME280;3265;42.694;23.282;2022-08-21T09:27:53;94109.53;;;25.25;85.01
6464;BME280;3265;42.694;23.282;2022-08-21T09:30:30;94116.34;;;25.34;85.55
6464;BME280;3265;42.694;23.282;2022-08-21T09:32:57;94112.75;;;25.39;85.04
6464;BME280;3265;42.694;23.282;2022-08-21T09:35:26;94111.44;;;25.45;85.41
6464;BME280;3265;42.694;23.282;2022-08-21T09:37:55;94107.31;;;25.56;86.13
6464;BME280;3265;42.694;23.282;2022-08-21T09:40:29;94104.19;;;25.54;84.95
6464;BME280;3265;42.694;23.282;2022-08-21T09:42:58;94107.06;;;25.70;84.17
6464;BME280;3265;42.694;23.282;2022-08-21T09:45:25;94103.66;;;25.81;83.32
6464;BME280;3265;42.694;23.282;2022-08-21T09:47:52;94106.03;;;25.83;84.09
6464;BME280;3265;42.694;23.282;2022-08-21T09:50:21;94098.34;;;25.81;83.31
6464;BME280;3265;42.694;23.282;2022-08-21T09:52:52;94104.31;;;25.78;82.13
6464;BME280;3265;42.694;23.282;2022-08-21T09:55:26;94094.78;;;25.57;83.61
6464;BME280;3265;42.694;23.282;2022-08-21T09:58:14;94103.75;;;25.52;84.67
6464;BME280;3265;42.694;23.282;2022-08-21T10:00:42;94094.56;;;25.41;85.36
6464;BME280;3265;42.694;23.282;2022-08-21T10:03:13;94090.03;;;25.42;85.49
6464;BME280;3265;42.694;23.282;2022-08-21T10:05:50;94083.38;;;25.27;85.49
6464;BME280;3265;42.694;23.282;2022-08-21T10:08:21;94092.41;;;25.34;84.87
6464;BME280;3265;42.694;23.282;2022-08-21T10:10:52;94084.84;;;25.45;87.26
6464;BME280;3265;42.694;23.282;2022-08-21T10:13:24;94082.47;;;25.44;85.18
6464;BME280;3265;42.694;23.282;2022-08-21T10:16:04;94086.56;;;25.41;84.73
6464;BME280;3265;42.694;23.282;2022-08-21T10:18:38;94086.91;;;25.60;85.25
6464;BME280;3265;42.694;23.282;2022-08-21T10:21:15;94075.84;;;25.91;83.72
6464;BME280;3265;42.694;23.282;2022-08-21T10:23:54;94077.31;;;26.01;82.11
6464;BME280;3265;42.694;23.282;2022-08-21T10:26:32;94072.47;;;26.03;81.06
6464;BME280;3265;42.694;23.282;2022-08-21T10:29:10;94070.34;;;26.41;81.24
6464;BME280;3265;42.694;23.282;2022-08-21T10:31:45;94072.97;;;26.86;78.29
6464;BME280;3265;42.694;23.282;2022-08-21T10:34:25;94079.06;;;27.11;78.02
6464;BME280;3265;42.694;23.282;2022-08-21T10:37:03;94063.50;;;27.00;76.26
6464;BME280;3265;42.694;23.282;2022-08-21T10:39:35;94064.97;;;26.98;76.90
6464;BME280;3265;42.694;23.282;2022-08-21T10:42:17;94068.97;;;26.92;75.90
6464;BME280;3265;42.694;23.282;2022-08-21T10:44:57;94070.19;;;27.07;76.67
6464;BME280;3265;42.694;23.282;2022-08-21T10:47:34;94069.16;;;27.23;75.30
6464;BME280;3265;42.694;23.282;2022-08-21T10:50:10;94057.00;;;27.50;75.66
6464;BME280;3265;42.694;23.282;2022-08-21T10:52:54;94058.47;;;27.75;73.85
6464;BME280;3265;42.694;23.282;2022-08-21T10:55:30;94048.88;;;28.02;75.09
6464;BME280;3265;42.694;23.282;2022-08-21T10:57:59;94062.31;;;28.33;73.87
6464;BME280;3265;42.694;23.282;2022-08-21T11:00:35;94055.00;;;28.61;72.95
6464;BME280;3265;42.694;23.282;2022-08-21T11:03:08;94047.34;;;28.76;71.75
6464;BME280;3265;42.694;23.282;2022-08-21T11:05:41;94040.22;;;28.99;72.00
6464;BME280;3265;42.694;23.282;2022-08-21T11:08:12;94042.34;;;29.24;70.92
6464;BME280;3265;42.694;23.282;2022-08-21T11:10:46;94044.88;;;29.17;70.49
6464;BME280;3265;42.694;23.282;2022-08-21T11:13:17;94034.31;;;29.24;70.21
6464;BME280;3265;42.694;23.282;2022-08-21T11:15:52;94030.63;;;29.48;69.99
6464;BME280;3265;42.694;23.282;2022-08-21T11:18:25;94025.47;;;29.40;67.50
6464;BME280;3265;42.694;23.282;2022-08-21T11:21:01;94018.91;;;29.56;68.18
6464;BME280;3265;42.694;23.282;2022-08-21T11:23:36;94027.78;;;29.79;67.82
6464;BME280;3265;42.694;23.282;2022-08-21T11:26:08;94022.13;;;29.81;68.63
6464;BME280;3265;42.694;23.282;2022-08-21T11:28:41;94025.91;;;29.80;68.67
6464;BME280;3265;42.694;23.282;2022-08-21T11:31:17;94029.00;;;29.82;68.28
6464;BME280;3265;42.694;23.282;2022-08-21T11:33:59;94019.03;;;30.02;68.61
6464;BME280;3265;42.694;23.282;2022-08-21T11:36:36;94022.81;;;30.20;67.89
6464;BME280;3265;42.694;23.282;2022-08-21T11:39:19;94019.75;;;30.41;67.19
6464;BME280;3265;42.694;23.282;2022-08-21T11:41:54;94024.69;;;30.61;66.21
6464;BME280;3265;42.694;23.282;2022-08-21T11:44:36;94013.44;;;30.52;64.86
6464;BME280;3265;42.694;23.282;2022-08-21T11:47:12;94017.84;;;30.64;64.79
6464;BME280;3265;42.694;23.282;2022-08-21T11:49:57;94028.06;;;30.81;64.67
6464;BME280;3265;42.694;23.282;2022-08-21T11:52:31;94026.53;;;30.57;62.50
6464;BME280;3265;42.694;23.282;2022-08-21T11:55:03;94014.78;;;30.20;63.86
6464;BME280;3265;42.694;23.282;2022-08-21T11:57:36;94018.56;;;29.96;65.77
6464;BME280;3265;42.694;23.282;2022-08-21T12:00:10;94013.72;;;29.83;66.07
6464;BME280;3265;42.694;23.282;2022-08-21T12:02:43;94009.19;;;29.48;66.84
6464;BME280;3265;42.694;23.282;2022-08-21T12:05:23;94015.94;;;29.23;66.44
6464;BME280;3265;42.694;23.282;2022-08-21T12:08:01;94008.38;;;28.94;67.72
6464;BME280;3265;42.694;23.282;2022-08-21T12:10:32;94000.84;;;28.64;68.54
6464;BME280;3265;42.694;23.282;2022-08-21T12:13:09;93985.31;;;28.39;69.23
6464;BME280;3265;42.694;23.282;2022-08-21T12:15:37;93996.78;;;28.24;69.23
6464;BME280;3265;42.694;23.282;2022-08-21T12:18:07;93990.72;;;28.11;70.19
6464;BME280;3265;42.694;23.282;2022-08-21T12:20:58;93997.34;;;28.01;70.22
6464;BME280;3265;42.694;23.282;2022-08-21T12:23:28;93995.25;;;27.95;71.01
6464;BME280;3265;42.694;23.282;2022-08-21T12:26:11;93998.97;;;27.90;72.29
6464;BME280;3265;42.694;23.282;2022-08-21T12:28:42;93996.25;;;27.75;73.82
6464;BME280;3265;42.694;23.282;2022-08-21T12:31:22;93996.06;;;27.68;72.86
6464;BME280;3265;42.694;23.282;2022-08-21T12:33:56;94000.69;;;27.55;71.38
6464;BME280;3265;42.694;23.282;2022-08-21T12:36:30;94000.16;;;27.49;71.97
6464;BME280;3265;42.694;23.282;2022-08-21T12:39:04;93994.94;;;27.29;72.21
6464;BME280;3265;42.694;23.282;2022-08-21T12:41:38;93998.94;;;27.35;72.64
6464;BME280;3265;42.694;23.282;2022-08-21T12:44:14;93998.16;;;27.34;73.21
6464;BME280;3265;42.694;23.282;2022-08-21T12:46:48;93995.84;;;27.33;72.63
6464;BME280;3265;42.694;23.282;2022-08-21T12:49:24;93987.97;;;27.24;72.57
6464;BME280;3265;42.694;23.282;2022-08-21T12:51:55;93989.31;;;27.18;71.75
6464;BME280;3265;42.694;23.282;2022-08-21T12:54:25;93987.66;;;27.14;72.68
6464;BME280;3265;42.694;23.282;2022-08-21T12:56:58;93987.78;;;27.05;72.78
6464;BME280;3265;42.694;23.282;2022-08-21T12:59:27;93988.91;;;27.04;72.20
6464;BME280;3265;42.694;23.282;2022-08-21T13:01:55;93995.78;;;27.05;72.70
6464;BME280;3265;42.694;23.282;2022-08-21T13:04:27;93996.25;;;26.95;73.08
6464;BME280;3265;42.694;23.282;2022-08-21T13:06:59;93991.81;;;26.87;73.03
6464;BME280;3265;42.694;23.282;2022-08-21T13:09:28;93989.81;;;26.72;73.71
6464;BME280;3265;42.694;23.282;2022-08-21T13:11:57;93995.28;;;26.63;74.29
6464;BME280;3265;42.694;23.282;2022-08-21T13:14:30;93984.38;;;26.44;74.89
6464;BME280;3265;42.694;23.282;2022-08-21T13:17:00;93989.25;;;26.30;75.02
6464;BME280;3265;42.694;23.282;2022-08-21T13:19:32;93976.72;;;26.30;75.62